Time;durP1;ratioP1;P1;durP2;ratioP2;P2;SDS_P1;SDS_P2;PMS_P1;PMS_P2;Temp;Humidity;BMP_temperature;BMP_pressure;BME280_temperature;BME280_humidity;BME280_pressure;Samples;Min_cycle;Max_cycle;Signal;HPM_P1;HPM_P2
2024/01/31 00:00:19;;;;;;;5.90;3.90;;;;;;;8.89;54.37;96224.84;4897275;29;20231;-86
2024/01/31 00:02:46;;;;;;;7.37;3.73;;;;;;;8.91;54.20;96223.75;4909512;29;20229;-85
2024/01/31 00:05:13;;;;;;;4.33;3.77;;;;;;;8.91;54.16;96217.78;4917024;29;20210;-85
2024/01/31 00:07:39;;;;;;;4.90;3.80;;;;;;;8.93;54.20;96223.59;4916218;29;20308;-85
2024/01/31 00:10:09;;;;;;;6.03;4.10;;;;;;;8.99;54.25;96238.41;4916240;29;20596;-85
2024/01/31 00:12:36;;;;;;;5.87;3.30;;;;;;;9.00;54.71;96250.28;4916524;29;20207;-85
2024/01/31 00:15:02;;;;;;;4.67;3.83;;;;;;;9.04;54.48;96237.97;4915466;29;20202;-85
2024/01/31 00:17:28;;;;;;;4.70;3.50;;;;;;;9.05;54.19;96229.28;4914301;29;20202;-85
2024/01/31 00:19:55;;;;;;;6.80;3.90;;;;;;;9.07;54.11;96224.78;4916002;29;20234;-85
2024/01/31 00:22:22;;;;;;;3.80;3.40;;;;;;;9.05;54.04;96214.66;4923895;29;20853;-85
2024/01/31 00:24:49;;;;;;;4.70;3.70;;;;;;;9.08;53.98;96211.81;4934792;29;20284;-86
2024/01/31 00:27:17;;;;;;;6.33;3.70;;;;;;;9.10;54.05;96224.50;4934804;29;20205;-85
2024/01/31 00:29:44;;;;;;;5.27;3.80;;;;;;;9.11;54.36;96232.06;4935161;29;20583;-84
2024/01/31 00:32:11;;;;;;;4.83;3.67;;;;;;;9.11;54.22;96228.69;4934670;29;20205;-85
2024/01/31 00:34:37;;;;;;;6.00;3.83;;;;;;;9.09;54.15;96210.84;4922258;29;20202;-85
2024/01/31 00:37:04;;;;;;;4.77;3.30;;;;;;;9.08;53.79;96221.28;4915106;29;20210;-85
2024/01/31 00:39:32;;;;;;;4.70;3.20;;;;;;;9.10;54.33;96237.34;4914281;29;20637;-85
2024/01/31 00:41:58;;;;;;;4.40;3.40;;;;;;;9.12;54.12;96235.44;4915470;29;20222;-85
2024/01/31 00:44:27;;;;;;;6.00;3.57;;;;;;;9.12;54.47;96254.22;4914702;29;20226;-85
2024/01/31 00:46:53;;;;;;;3.70;3.20;;;;;;;9.11;54.58;96254.38;4915062;29;20277;-85
2024/01/31 00:49:20;;;;;;;5.07;3.80;;;;;;;9.08;54.67;96260.59;4914960;29;20609;-86
2024/01/31 00:51:52;;;;;;;4.03;3.60;;;;;;;9.05;54.23;96258.34;4913456;29;20206;-85
2024/01/31 00:54:19;;;;;;;4.67;3.77;;;;;;;9.05;54.88;96265.22;4915475;29;20202;-85
2024/01/31 00:56:45;;;;;;;4.93;3.70;;;;;;;9.01;55.11;96282.72;4902404;29;20213;-85
2024/01/31 00:59:12;;;;;;;5.93;3.70;;;;;;;8.94;55.34;96284.28;4913313;29;20221;-85
2024/01/31 01:01:46;;;;;;;6.10;4.00;;;;;;;8.92;55.52;96297.25;4934080;29;20206;-85
2024/01/31 01:04:12;;;;;;;5.63;3.80;;;;;;;8.92;55.65;96309.28;4898042;29;20231;-85
2024/01/31 01:06:40;;;;;;;3.73;3.43;;;;;;;8.85;55.59;96300.59;4900965;29;20234;-85
2024/01/31 01:09:06;;;;;;;5.30;3.63;;;;;;;8.83;55.60;96302.50;4906481;29;20269;-84
2024/01/31 01:11:33;;;;;;;4.97;4.03;;;;;;;8.86;55.77;96307.31;4906894;29;20562;-85
2024/01/31 01:13:59;;;;;;;5.37;3.60;;;;;;;8.86;55.74;96312.44;4895985;29;20206;-85
2024/01/31 01:16:25;;;;;;;5.13;3.80;;;;;;;8.85;55.63;96314.19;4897058;29;20211;-84
2024/01/31 01:18:55;;;;;;;4.87;3.77;;;;;;;8.80;55.36;96306.16;4925157;29;20715;-85
2024/01/31 01:21:21;;;;;;;4.10;3.70;;;;;;;8.79;55.78;96311.44;4932616;29;20259;-85
2024/01/31 01:23:47;;;;;;;4.53;3.60;;;;;;;8.78;55.81;96310.63;4915921;29;20229;-85
2024/01/31 01:26:14;;;;;;;4.03;3.20;;;;;;;8.78;55.47;96307.25;4914606;29;20214;-85
2024/01/31 01:28:43;;;;;;;5.70;3.60;;;;;;;8.75;55.59;96308.34;4914177;29;20670;-85
2024/01/31 01:31:10;;;;;;;4.67;3.63;;;;;;;8.76;55.87;96312.53;4914678;29;20301;-84
2024/01/31 01:33:37;;;;;;;4.50;3.47;;;;;;;8.77;55.73;96321.03;4914496;29;20206;-84
2024/01/31 01:36:06;;;;;;;5.50;3.40;;;;;;;8.76;55.68;96322.00;4914139;29;20210;-86
2024/01/31 01:38:33;;;;;;;4.37;3.50;;;;;;;8.72;56.06;96318.09;4912949;29;20229;-86
2024/01/31 01:41:02;;;;;;;4.87;3.77;;;;;;;8.72;56.01;96328.38;4913655;29;20222;-85
2024/01/31 01:43:28;;;;;;;7.07;3.60;;;;;;;8.71;56.05;96331.88;4914036;29;20291;-85
2024/01/31 01:46:06;;;;;;;4.37;3.57;;;;;;;8.70;56.14;96336.22;4914359;29;20676;-85
2024/01/31 01:48:32;;;;;;;5.53;3.90;;;;;;;8.62;56.19;96349.00;4914465;29;20236;-85
2024/01/31 01:50:59;;;;;;;4.67;3.47;;;;;;;8.61;56.37;96357.66;4914109;29;20213;-86
2024/01/31 01:53:27;;;;;;;4.43;3.70;;;;;;;8.58;56.64;96361.31;4914208;29;20202;-85
2024/01/31 01:55:57;;;;;;;4.23;3.70;;;;;;;8.53;57.13;96360.91;4905994;29;20218;-84
2024/01/31 02:02:47;;;;;;;7.37;3.90;;;;;;;8.38;56.92;96352.09;4794118;29;20253;-85
2024/01/31 02:09:16;;;;;;;4.10;3.70;;;;;;;8.26;57.28;96363.50;4799763;29;20237;-85
2024/01/31 02:15:38;;;;;;;5.67;3.80;;;;;;;8.13;57.73;96391.22;4735724;30;20279;-85
2024/01/31 02:21:55;;;;;;;4.87;3.87;;;;;;;7.96;58.54;96432.03;4776980;29;20616;-85
2024/01/31 02:25:02;;;;;;;4.60;3.77;;;;;;;7.93;58.28;96440.00;4818196;29;20260;-84
2024/01/31 02:31:01;;;;;;;5.43;3.70;;;;;;;7.93;58.41;96434.88;4889072;29;20285;-85
2024/01/31 02:33:48;;;;;;;4.13;3.50;;;;;;;7.83;58.63;96444.34;4892188;29;20227;-85
2024/01/31 02:36:21;;;;;;;3.90;3.50;;;;;;;7.84;58.79;96442.59;4910214;29;20941;-85
2024/01/31 02:39:13;;;;;;;4.83;3.27;;;;;;;7.86;58.76;96450.97;4913115;29;20226;-85
2024/01/31 02:45:27;;;;;;;5.37;3.73;;;;;;;7.83;59.20;96464.06;4913586;29;20287;-85
2024/01/31 02:48:01;;;;;;;5.00;3.77;;;;;;;7.80;58.73;96457.44;4914363;29;20210;-85
2024/01/31 02:54:06;;;;;;;4.57;3.40;;;;;;;7.77;59.15;96464.59;4912994;29;20224;-85
2024/01/31 02:56:38;;;;;;;4.03;3.53;;;;;;;7.83;58.91;96453.78;4875726;29;20215;-85
2024/01/31 03:02:32;;;;;;;4.10;3.60;;;;;;;7.78;59.27;96459.34;4916737;29;20218;-85
2024/01/31 03:05:32;;;;;;;4.27;3.23;;;;;;;7.78;58.95;96459.34;4918009;29;20240;-85
2024/01/31 03:08:51;;;;;;;4.70;3.43;;;;;;;7.79;59.31;96472.97;4898008;29;20576;-85
2024/01/31 03:11:48;;;;;;;4.63;3.50;;;;;;;7.80;59.81;96495.09;4908612;29;20199;-84
2024/01/31 03:14:59;;;;;;;3.97;3.10;;;;;;;7.85;59.75;96506.56;4933734;29;20205;-85
2024/01/31 03:17:42;;;;;;;7.43;3.57;;;;;;;7.87;59.49;96507.22;4913611;29;20225;-85
2024/01/31 03:20:28;;;;;;;5.97;3.20;;;;;;;7.86;59.90;96509.94;4916720;29;20241;-85
2024/01/31 03:23:05;;;;;;;3.83;3.30;;;;;;;7.82;59.76;96501.69;4916710;29;20206;-85
2024/01/31 03:25:40;;;;;;;4.57;3.10;;;;;;;7.82;59.46;96504.25;4917176;29;20229;-85
2024/01/31 03:28:07;;;;;;;4.27;3.40;;;;;;;7.85;59.47;96511.69;4916667;29;20236;-84
2024/01/31 03:30:35;;;;;;;3.77;3.10;;;;;;;7.91;59.78;96513.69;4898456;29;20218;-84
2024/01/31 03:33:01;;;;;;;3.67;3.23;;;;;;;7.91;59.84;96513.69;4913905;29;20210;-85
2024/01/31 03:35:44;;;;;;;3.30;3.00;;;;;;;7.88;59.62;96503.72;4917370;29;20213;-85
2024/01/31 03:38:26;;;;;;;4.60;3.10;;;;;;;7.91;59.40;96516.25;4916441;29;20213;-85
2024/01/31 03:40:58;;;;;;;6.13;3.13;;;;;;;7.89;59.55;96509.63;4916003;29;20199;-85
2024/01/31 03:43:25;;;;;;;3.23;2.93;;;;;;;7.88;59.48;96508.03;4916485;29;20206;-85
2024/01/31 03:45:52;;;;;;;3.43;3.13;;;;;;;7.88;59.48;96506.28;4916808;29;20226;-85
2024/01/31 03:48:19;;;;;;;4.13;3.23;;;;;;;7.87;59.31;96494.41;4914268;29;20202;-84
2024/01/31 03:50:46;;;;;;;3.37;3.03;;;;;;;7.86;59.31;96494.56;4915787;29;20241;-85
2024/01/31 03:53:12;;;;;;;5.00;3.40;;;;;;;7.90;59.26;96494.13;4916032;29;20206;-85
2024/01/31 03:55:39;;;;;;;4.47;3.23;;;;;;;7.88;59.05;96487.53;4911910;29;20207;-84
2024/01/31 03:58:05;;;;;;;3.97;3.47;;;;;;;7.87;59.38;96511.56;4897633;29;20677;-85
2024/01/31 04:00:31;;;;;;;3.60;3.07;;;;;;;7.92;59.75;96515.31;4897513;29;20227;-85
2024/01/31 04:02:59;;;;;;;3.23;2.90;;;;;;;7.92;59.55;96517.06;4897642;29;20211;-84
2024/01/31 04:05:26;;;;;;;3.73;3.00;;;;;;;7.94;59.63;96526.25;4914105;29;20222;-85
2024/01/31 04:07:52;;;;;;;4.60;3.43;;;;;;;7.96;59.26;96528.66;4927697;29;20682;-85
2024/01/31 04:10:19;;;;;;;5.63;3.10;;;;;;;7.95;59.53;96524.47;4934791;29;20249;-85
2024/01/31 04:12:45;;;;;;;3.80;3.33;;;;;;;7.95;59.45;96525.28;4900277;29;20203;-84
2024/01/31 04:15:11;;;;;;;3.40;3.10;;;;;;;7.95;59.57;96527.03;4896789;29;20207;-85
2024/01/31 04:17:38;;;;;;;3.83;3.30;;;;;;;7.91;59.67;96523.13;4897032;29;20215;-85
2024/01/31 04:20:07;;;;;;;3.80;3.47;;;;;;;7.89;59.75;96530.16;4902314;29;20242;-85
2024/01/31 04:22:34;;;;;;;3.87;3.17;;;;;;;7.89;59.70;96530.16;4915952;29;20214;-85
2024/01/31 04:28:13;;;;;;;3.73;3.20;;;;;;;7.88;59.79;96542.19;4911850;29;20210;-85
2024/01/31 04:31:03;;;;;;;5.33;3.57;;;;;;;7.89;60.11;96543.78;4915488;29;20267;-85
2024/01/31 04:33:39;;;;;;;3.73;3.40;;;;;;;7.89;59.91;96530.97;4915196;29;20209;-84
2024/01/31 04:36:19;;;;;;;;;;;;;;;;;;;;;
2024/01/31 04:38:58;;;;;;;;;;;;;;;;;;;;;
2024/01/31 04:41:28;;;;;;;5.80;3.67;;;;;;;7.73;60.07;96538.38;4915625;29;20206;-84
2024/01/31 04:47:32;;;;;;;4.60;3.20;;;;;;;7.84;60.33;96569.03;4899681;29;20213;-84
2024/01/31 04:53:43;;;;;;;4.37;3.67;;;;;;;7.84;60.18;96550.28;4884909;29;20216;-84
2024/01/31 05:03:43;;;;;;;6.50;3.50;;;;;;;7.97;60.13;96564.44;4786059;29;20268;-85
2024/01/31 05:15:28;;;;;;;4.63;3.33;;;;;;;7.94;59.75;96554.44;4876223;29;20211;-85
2024/01/31 05:21:10;;;;;;;4.00;3.50;;;;;;;8.04;59.98;96566.47;4896210;29;20219;-85
2024/01/31 05:24:21;;;;;;;4.73;3.30;;;;;;;8.03;60.35;96563.09;4896490;29;20737;-84
2024/01/31 05:26:49;;;;;;;3.93;3.20;;;;;;;8.05;60.10;96563.75;4914538;29;20218;-85
2024/01/31 05:29:20;;;;;;;4.60;3.50;;;;;;;8.09;59.83;96552.25;4914716;29;20234;-84
2024/01/31 05:31:47;;;;;;;6.37;3.30;;;;;;;8.15;59.42;96545.78;4914482;29;20210;-84
2024/01/31 05:37:31;;;;;;;6.10;3.27;;;;;;;8.18;59.57;96551.44;4874457;29;20256;-84
2024/01/31 05:40:25;;;;;;;4.70;3.70;;;;;;;8.19;59.91;96558.19;4871075;29;20323;-84
2024/01/31 05:44:01;;;;;;;5.17;3.27;;;;;;;8.19;59.79;96545.38;4914429;29;20304;-84
2024/01/31 05:49:52;;;;;;;;;;;;;;;;;;;;;
2024/01/31 05:52:43;;;;;;;4.90;3.50;;;;;;;8.20;60.22;96553.88;4850145;29;20216;-85
2024/01/31 05:55:37;;;;;;;;;;;;;;;;;;;;;
2024/01/31 05:58:46;;;;;;;6.13;3.57;;;;;;;8.12;59.54;96534.03;4910164;29;20553;-84
2024/01/31 06:05:00;;;;;;;5.43;3.70;;;;;;;8.13;59.18;96530.53;4927820;29;20241;-85
2024/01/31 06:07:42;;;;;;;5.37;3.17;;;;;;;8.14;59.15;96518.50;4931820;29;20225;-85
2024/01/31 06:10:14;;;;;;;3.83;3.40;;;;;;;8.18;59.22;96525.78;4931803;29;20229;-85
2024/01/31 06:12:48;;;;;;;4.80;3.63;;;;;;;8.17;58.98;96513.91;4900781;29;20209;-85
2024/01/31 06:15:39;;;;;;;5.80;4.03;;;;;;;8.22;59.05;96529.72;4912220;29;20217;-86
2024/01/31 06:18:17;;;;;;;4.77;3.90;;;;;;;8.21;59.44;96540.09;4902767;29;20211;-86
2024/01/31 06:21:05;;;;;;;6.83;4.07;;;;;;;8.22;59.45;96557.94;4893196;29;20301;-85
2024/01/31 06:24:00;;;;;;;7.23;3.80;;;;;;;8.23;59.69;96556.97;4893389;29;20277;-86
2024/01/31 06:26:46;;;;;;;7.53;3.63;;;;;;;8.25;59.47;96554.28;4893337;29;20254;-85
2024/01/31 06:29:27;;;;;;;12.13;4.50;;;;;;;8.22;59.00;96546.84;4900892;29;20695;-85
2024/01/31 06:31:59;;;;;;;5.83;3.90;;;;;;;8.22;59.83;96572.50;4921197;29;20563;-84
2024/01/31 06:34:26;;;;;;;5.87;4.30;;;;;;;8.20;59.75;96562.38;4920831;29;20210;-85
2024/01/31 06:36:53;;;;;;;9.13;6.00;;;;;;;8.17;59.52;96560.09;4920504;29;20684;-85
2024/01/31 06:39:20;;;;;;;12.33;8.50;;;;;;;8.20;59.92;96590.59;4921119;29;20293;-84
2024/01/31 06:41:46;;;;;;;7.20;5.63;;;;;;;8.20;60.00;96589.78;4921265;29;20238;-84
2024/01/31 06:44:13;;;;;;;7.57;4.50;;;;;;;8.16;60.08;96591.00;4925336;29;20198;-84
2024/01/31 06:46:39;;;;;;;8.63;4.00;;;;;;;8.13;59.68;96592.09;4920243;29;20615;-84
2024/01/31 06:49:05;;;;;;;5.87;3.57;;;;;;;8.09;60.28;96603.56;4921116;29;20222;-84
2024/01/31 06:51:32;;;;;;;8.30;3.70;;;;;;;8.14;60.16;96598.03;4920346;29;20209;-84
2024/01/31 06:54:00;;;;;;;9.17;4.10;;;;;;;8.18;59.80;96601.94;4921500;29;20246;-83
2024/01/31 06:56:27;;;;;;;6.63;4.10;;;;;;;8.17;59.92;96601.13;4928550;29;20290;-85
2024/01/31 06:58:55;;;;;;;9.87;7.53;;;;;;;8.14;59.90;96598.84;4939418;29;20233;-85
2024/01/31 07:01:21;;;;;;;8.47;5.70;;;;;;;8.08;59.74;96601.16;4931755;29;20249;-84
2024/01/31 07:03:48;;;;;;;9.33;4.40;;;;;;;8.04;59.78;96603.19;4920910;29;20221;-83
2024/01/31 07:06:15;;;;;;;6.93;4.80;;;;;;;8.00;59.99;96604.38;4920144;29;20742;-84
2024/01/31 07:08:42;;;;;;;5.10;3.60;;;;;;;7.99;59.54;96605.34;4920672;29;20234;-84
2024/01/31 07:11:10;;;;;;;6.63;4.63;;;;;;;7.96;60.03;96608.16;4917115;29;20452;-84
2024/01/31 07:13:36;;;;;;;6.80;4.53;;;;;;;7.96;59.95;96603.03;4903205;29;20223;-85
2024/01/31 07:16:04;;;;;;;5.63;3.80;;;;;;;7.92;59.93;96593.97;4902827;29;20199;-85
2024/01/31 07:18:32;;;;;;;8.13;4.00;;;;;;;7.91;59.93;96588.03;4915261;29;20214;-84
2024/01/31 07:20:58;;;;;;;5.10;3.80;;;;;;;7.91;59.46;96577.78;4921532;29;20257;-84
2024/01/31 07:23:25;;;;;;;5.50;3.80;;;;;;;7.93;59.77;96581.03;4921494;29;20210;-84
2024/01/31 07:25:51;;;;;;;12.30;4.33;;;;;;;7.95;60.30;96611.66;4921453;29;20218;-84
2024/01/31 07:28:20;;;;;;;6.57;4.10;;;;;;;7.99;59.80;96589.94;4920992;29;20894;-84
2024/01/31 07:30:47;;;;;;;7.93;4.20;;;;;;;7.98;59.72;96589.13;4904109;29;20289;-84
2024/01/31 07:33:13;;;;;;;6.47;4.23;;;;;;;8.06;60.05;96592.78;4905528;29;20211;-83
2024/01/31 07:35:40;;;;;;;5.43;4.13;;;;;;;8.05;59.72;96579.16;4922435;29;20210;-85
2024/01/31 07:38:06;;;;;;;6.73;4.17;;;;;;;7.96;59.67;96575.63;4922144;29;20209;-84
2024/01/31 07:40:32;;;;;;;7.47;4.13;;;;;;;7.97;59.59;96561.06;4920457;29;20230;-84
2024/01/31 07:42:59;;;;;;;6.17;4.40;;;;;;;7.87;59.68;96570.53;4921861;29;20210;-84
2024/01/31 07:45:27;;;;;;;6.83;4.20;;;;;;;7.91;59.64;96567.53;4925224;29;20225;-85
2024/01/31 07:47:56;;;;;;;6.60;4.47;;;;;;;7.95;59.41;96568.88;4940909;29;20221;-84
2024/01/31 07:50:23;;;;;;;5.80;4.50;;;;;;;8.03;59.19;96547.69;4926806;29;20230;-84
2024/01/31 07:52:49;;;;;;;6.57;4.20;;;;;;;8.07;59.09;96541.34;4933392;29;20210;-83
2024/01/31 07:55:16;;;;;;;7.73;4.40;;;;;;;8.16;59.24;96542.28;4920558;29;20229;-84
2024/01/31 07:57:43;;;;;;;6.47;4.43;;;;;;;8.21;58.81;96520.41;4921294;29;20271;-84
2024/01/31 08:00:10;;;;;;;7.30;4.33;;;;;;;8.31;58.45;96516.03;4920339;29;20233;-84
2024/01/31 08:02:41;;;;;;;6.57;4.20;;;;;;;8.34;58.55;96512.41;4921130;29;20225;-84
2024/01/31 08:05:07;;;;;;;5.20;4.20;;;;;;;8.45;58.12;96494.31;4920633;29;20268;-84
2024/01/31 08:07:34;;;;;;;10.00;4.60;;;;;;;8.44;57.94;96472.16;4918943;29;20221;-84
2024/01/31 08:10:00;;;;;;;8.67;4.67;;;;;;;8.66;57.32;96460.69;4919142;29;20230;-84
2024/01/31 08:12:27;;;;;;;7.10;4.40;;;;;;;8.95;57.17;96448.50;4903294;29;20213;-85
2024/01/31 08:14:53;;;;;;;6.43;4.30;;;;;;;9.24;56.26;96420.00;4900060;29;20716;-85
2024/01/31 08:17:20;;;;;;;9.37;6.27;;;;;;;9.54;55.58;96392.31;4899777;29;20218;-85
2024/01/31 08:19:48;;;;;;;7.30;4.73;;;;;;;9.74;54.86;96344.88;4899697;29;20259;-83
2024/01/31 08:22:14;;;;;;;7.37;4.30;;;;;;;9.85;54.18;96313.75;4905291;29;20248;-85
2024/01/31 08:24:40;;;;;;;7.37;4.13;;;;;;;10.00;53.84;96301.13;4919571;29;20232;-84
2024/01/31 08:27:07;;;;;;;4.90;4.10;;;;;;;10.25;53.77;96297.69;4920243;29;20703;-85
2024/01/31 08:32:52;;;;;;;7.87;4.80;;;;;;;10.82;51.98;96206.81;4936027;29;20233;-85
2024/01/31 08:35:47;;;;;;;7.33;4.37;;;;;;;11.06;50.97;96163.78;4935624;29;20201;-83
2024/01/31 08:38:13;;;;;;;8.47;4.40;;;;;;;11.31;50.50;96143.09;4934560;29;20209;-84
2024/01/31 08:40:50;;;;;;;6.63;3.73;;;;;;;11.50;50.31;96118.69;4934470;29;20941;-84
2024/01/31 08:46:32;;;;;;;5.07;3.80;;;;;;;11.58;49.65;96074.78;4901482;29;20250;-84
2024/01/31 08:48:59;;;;;;;8.60;4.20;;;;;;;11.71;50.05;96099.06;4912301;29;20222;-83
2024/01/31 08:51:38;;;;;;;5.50;4.10;;;;;;;11.90;49.45;96079.78;4918734;29;20198;-84
2024/01/31 08:54:18;;;;;;;7.20;4.13;;;;;;;12.03;49.22;96059.34;4920923;29;20198;-85
2024/01/31 09:00:29;;;;;;;5.47;4.50;;;;;;;12.25;48.75;96049.16;4846060;29;20262;-84
2024/01/31 09:02:56;;;;;;;6.50;4.80;;;;;;;12.44;49.09;96051.25;4823439;29;20204;-85
2024/01/31 09:05:22;;;;;;;9.07;4.60;;;;;;;12.59;48.65;96038.34;4921997;29;20297;-84
2024/01/31 09:07:50;;;;;;;9.50;5.40;;;;;;;12.67;48.50;96020.97;4922444;29;20680;-84
2024/01/31 09:10:21;;;;;;;10.73;5.47;;;;;;;12.66;48.60;96014.22;4920249;29;20248;-83
2024/01/31 09:12:56;;;;;;;5.80;5.27;;;;;;;12.77;48.57;96020.69;4921160;29;20684;-84
2024/01/31 09:15:26;;;;;;;8.83;5.10;;;;;;;12.88;48.88;96038.34;4921508;29;20214;-84
2024/01/31 09:17:52;;;;;;;11.60;5.37;;;;;;;12.90;48.81;96036.38;4921909;29;20273;-84
2024/01/31 09:20:20;;;;;;;6.40;5.00;;;;;;;12.97;48.96;96039.03;4921665;29;20277;-85
2024/01/31 09:22:46;;;;;;;8.27;4.90;;;;;;;12.92;48.91;96037.00;4921066;29;20210;-84
2024/01/31 09:25:17;;;;;;;8.03;5.43;;;;;;;12.87;49.20;96051.44;4926208;29;20237;-84
2024/01/31 09:27:44;;;;;;;9.33;5.00;;;;;;;12.83;49.46;96068.28;4921342;29;20624;-84
2024/01/31 09:30:11;;;;;;;6.20;5.13;;;;;;;12.98;49.51;96084.59;4922397;29;20246;-84
2024/01/31 09:32:37;;;;;;;10.43;5.40;;;;;;;13.14;49.90;96098.13;4921298;29;20228;-85
2024/01/31 09:35:04;;;;;;;6.77;5.27;;;;;;;13.25;49.82;96102.09;4920436;29;20214;-85
2024/01/31 09:37:32;;;;;;;6.70;4.83;;;;;;;13.33;49.73;96096.78;4920478;29;20359;-83
2024/01/31 09:39:59;;;;;;;7.63;6.17;;;;;;;13.32;49.26;96071.13;4920107;29;20237;-85
2024/01/31 09:42:27;;;;;;;7.17;4.90;;;;;;;13.10;49.32;96057.28;4918813;29;20780;-85
2024/01/31 09:44:55;;;;;;;9.67;5.87;;;;;;;13.10;49.57;96054.72;4920230;29;20723;-83
2024/01/31 09:47:26;;;;;;;6.23;5.60;;;;;;;13.08;49.41;96059.28;4920056;29;20290;-85
2024/01/31 09:49:53;;;;;;;6.50;4.80;;;;;;;13.26;49.49;96066.69;4918429;29;20290;-84
2024/01/31 09:52:27;;;;;;;6.10;5.33;;;;;;;13.13;48.41;96011.19;4917269;29;20265;-85
2024/01/31 09:54:57;;;;;;;9.10;5.80;;;;;;;13.12;48.60;96007.00;4917130;29;20241;-84
2024/01/31 09:57:23;;;;;;;6.17;5.57;;;;;;;13.07;48.53;96000.81;4916810;29;20784;-83
2024/01/31 09:59:52;;;;;;;6.80;5.87;;;;;;;13.07;48.83;96016.31;4915817;29;20755;-84
2024/01/31 10:02:18;;;;;;;6.37;5.37;;;;;;;13.14;48.79;96028.31;4916473;29;20573;-84
2024/01/31 10:04:46;;;;;;;7.07;5.30;;;;;;;13.37;48.77;96035.97;4917312;29;20206;-85
2024/01/31 10:07:13;;;;;;;7.23;5.67;;;;;;;13.40;47.89;95983.88;4917718;29;20284;-84
2024/01/31 10:09:39;;;;;;;6.53;4.93;;;;;;;13.30;47.64;95957.50;4917470;29;20245;-83
2024/01/31 10:12:06;;;;;;;6.20;4.77;;;;;;;13.35;47.85;95957.75;4917302;29;20381;-84
2024/01/31 10:14:33;;;;;;;5.97;4.97;;;;;;;13.41;47.58;95957.03;4916119;29;20252;-84
2024/01/31 10:17:02;;;;;;;7.60;5.17;;;;;;;13.49;46.71;95904.34;4919211;29;20218;-84
2024/01/31 10:19:28;;;;;;;6.13;4.53;;;;;;;13.59;46.66;95883.34;4921057;29;20229;-85
2024/01/31 10:21:58;;;;;;;6.33;4.73;;;;;;;13.51;46.74;95886.84;4921544;29;20206;-85
2024/01/31 10:24:24;;;;;;;5.63;4.87;;;;;;;13.29;46.90;95874.94;4919989;29;20213;-84
2024/01/31 10:26:51;;;;;;;5.33;4.57;;;;;;;13.13;47.32;95909.56;4918925;29;20257;-85
2024/01/31 10:29:19;;;;;;;5.43;4.40;;;;;;;13.26;47.79;95930.44;4917554;29;20626;-85
2024/01/31 10:31:47;;;;;;;7.60;4.70;;;;;;;13.28;47.54;95923.25;4917388;29;20209;-85
2024/01/31 10:34:15;;;;;;;5.93;4.07;;;;;;;13.26;47.79;95919.28;4918380;29;20719;-86
2024/01/31 10:36:42;;;;;;;5.57;4.23;;;;;;;13.24;47.97;95923.84;4918598;29;20210;-85
2024/01/31 10:39:10;;;;;;;6.40;4.30;;;;;;;13.16;47.70;95911.03;4917763;29;20270;-84
2024/01/31 10:41:38;;;;;;;5.50;4.43;;;;;;;13.04;48.06;95934.75;4918117;29;20243;-84
2024/01/31 10:44:08;;;;;;;6.73;4.50;;;;;;;13.00;47.83;95938.69;4918968;29;20273;-85
2024/01/31 10:46:35;;;;;;;5.30;4.17;;;;;;;13.05;48.57;95948.47;4916874;29;20861;-86
2024/01/31 10:49:01;;;;;;;5.50;4.57;;;;;;;13.08;48.31;95961.81;4918559;29;20232;-84
2024/01/31 10:51:30;;;;;;;5.30;4.13;;;;;;;12.95;47.87;95922.09;4919235;29;20210;-85
2024/01/31 10:53:58;;;;;;;5.10;4.60;;;;;;;12.96;48.25;95937.44;4917752;29;20587;-84
2024/01/31 10:56:25;;;;;;;7.30;4.80;;;;;;;13.00;48.41;95941.25;4917825;29;20273;-85
2024/01/31 10:58:52;;;;;;;6.20;4.10;;;;;;;12.99;48.08;95939.66;4918394;29;20364;-84
2024/01/31 11:01:18;;;;;;;6.83;4.87;;;;;;;12.89;47.99;95921.06;4934412;29;20269;-85
2024/01/31 11:03:46;;;;;;;7.60;4.28;;;;;;;12.98;48.31;95932.09;4925166;29;20206;-84
2024/01/31 11:06:13;;;;;;;5.13;4.43;;;;;;;12.91;47.95;95918.28;4917774;29;20770;-83
2024/01/31 11:08:44;;;;;;;4.83;4.13;;;;;;;12.99;48.13;95924.16;4917202;29;20206;-84
2024/01/31 11:11:11;;;;;;;6.60;4.20;;;;;;;12.92;48.25;95923.28;4917343;29;20221;-84
2024/01/31 11:13:37;;;;;;;6.77;4.37;;;;;;;12.86;48.27;95926.59;4917712;29;20249;-84
2024/01/31 11:16:04;;;;;;;7.57;4.50;;;;;;;12.84;48.48;95946.66;4919890;29;20233;-84
2024/01/31 11:18:31;;;;;;;5.73;4.20;;;;;;;12.77;48.77;95943.19;4920548;29;20213;-85
2024/01/31 11:20:58;;;;;;;8.03;4.63;;;;;;;12.73;48.92;95965.19;4918732;29;20221;-84
2024/01/31 11:23:26;;;;;;;7.80;4.50;;;;;;;12.75;49.02;95958.06;4920436;29;20209;-83
2024/01/31 11:25:54;;;;;;;8.73;4.40;;;;;;;12.83;49.11;95957.16;4920021;29;20249;-84
2024/01/31 11:28:22;;;;;;;7.37;4.83;;;;;;;12.97;48.81;95946.78;4920928;29;20209;-86
2024/01/31 11:30:51;;;;;;;7.70;4.13;;;;;;;13.26;48.64;95958.88;4920735;29;20659;-83
2024/01/31 11:33:18;;;;;;;6.70;4.47;;;;;;;13.56;48.29;95935.47;4921862;29;20390;-86
2024/01/31 11:35:45;;;;;;;10.93;5.67;;;;;;;13.88;47.87;95923.75;4919142;29;20240;-86
2024/01/31 11:38:12;;;;;;;10.40;7.03;;;;;;;14.16;47.16;95876.16;4919196;29;20546;-85
2024/01/31 11:40:38;;;;;;;8.45;4.75;;;;;;;14.48;47.79;95934.31;4918880;29;20230;-87
2024/01/31 11:43:06;;;;;;;6.25;4.50;;;;;;;14.58;47.28;95882.16;4920905;29;20210;-83
2024/01/31 11:45:33;;;;;;;6.65;4.63;;;;;;;14.36;46.64;95834.00;4920334;29;20213;-83
2024/01/31 11:47:59;;;;;;;5.07;3.90;;;;;;;14.21;46.95;95844.50;4935062;29;20245;-82
2024/01/31 11:50:27;;;;;;;11.00;4.57;;;;;;;14.18;47.28;95856.06;4932143;29;20214;-82
2024/01/31 11:52:54;;;;;;;6.63;3.95;;;;;;;14.26;47.40;95862.03;4929568;29;20226;-83
2024/01/31 11:55:21;;;;;;;8.38;4.22;;;;;;;14.20;47.33;95850.69;4929662;29;20490;-84
2024/01/31 11:57:48;;;;;;;6.80;4.50;;;;;;;14.14;47.59;95852.25;4931753;29;20205;-83
2024/01/31 12:00:19;;;;;;;5.35;4.18;;;;;;;14.22;46.83;95822.00;4929428;29;20226;-85
2024/01/31 12:02:47;;;;;;;7.07;4.50;;;;;;;14.39;46.57;95818.09;4928555;29;20207;-86
2024/01/31 12:05:13;;;;;;;5.78;4.25;;;;;;;14.58;46.31;95798.44;4928082;29;20206;-85
2024/01/31 12:07:40;;;;;;;6.45;4.43;;;;;;;14.73;46.21;95786.09;4927774;29;20269;-84
2024/01/31 12:10:08;;;;;;;6.63;4.30;;;;;;;14.80;45.86;95771.38;4926363;29;20241;-85
2024/01/31 12:12:41;;;;;;;10.32;4.47;;;;;;;14.88;46.15;95791.91;4926129;29;20201;-83
2024/01/31 12:15:08;;;;;;;6.57;4.32;;;;;;;14.90;45.67;95756.22;4927080;29;20210;-83
2024/01/31 12:17:36;;;;;;;7.13;4.30;;;;;;;15.03;45.66;95760.59;4926207;29;20203;-83
2024/01/31 12:20:04;;;;;;;7.65;4.40;;;;;;;15.01;45.94;95772.97;4925283;29;20254;-82
2024/01/31 12:22:31;;;;;;;5.65;4.07;;;;;;;15.05;45.93;95793.09;4925195;29;20689;-83
2024/01/31 12:24:57;;;;;;;4.78;4.25;;;;;;;15.04;45.99;95786.31;4923117;29;20206;-86
2024/01/31 12:27:24;;;;;;;5.63;4.10;;;;;;;14.99;46.55;95808.69;4924868;29;20237;-83
2024/01/31 12:29:51;;;;;;;28.45;24.95;;;;;;;14.87;46.45;95803.25;4924455;29;20234;-83
2024/01/31 12:32:18;;;;;;;9.30;7.78;;;;;;;15.06;46.46;95809.47;4925491;29;20265;-84
2024/01/31 12:34:45;;;;;;;4.53;4.10;;;;;;;15.16;46.10;95786.53;4924393;29;20213;-83
2024/01/31 12:37:12;;;;;;;6.35;4.53;;;;;;;15.16;46.22;95786.53;4923676;29;20628;-84
2024/01/31 12:39:38;;;;;;;5.35;4.10;;;;;;;15.13;46.35;95787.75;4921620;29;20226;-84
2024/01/31 12:42:06;;;;;;;6.38;4.40;;;;;;;15.30;46.25;95788.13;4924595;29;20214;-83
2024/01/31 12:44:32;;;;;;;7.00;4.20;;;;;;;15.48;45.81;95767.53;4923674;29;20265;-85
2024/01/31 12:47:04;;;;;;;4.90;4.40;;;;;;;15.55;45.94;95775.34;4924486;29;20230;-83
2024/01/31 12:49:32;;;;;;;6.60;4.40;;;;;;;15.67;45.91;95765.94;4925055;29;20261;-82
2024/01/31 12:52:00;;;;;;;6.93;4.10;;;;;;;15.75;45.71;95770.13;4925431;29;20261;-84
2024/01/31 12:54:27;;;;;;;5.72;4.35;;;;;;;15.88;45.44;95746.72;4923033;29;20202;-83
2024/01/31 12:56:53;;;;;;;5.03;4.30;;;;;;;15.85;45.24;95727.16;4921584;29;20206;-83
2024/01/31 12:59:23;;;;;;;8.10;4.50;;;;;;;15.87;45.61;95747.72;4923179;29;20230;-84
2024/01/31 13:01:49;;;;;;;5.82;4.57;;;;;;;15.94;45.27;95727.72;4923491;29;20202;-85
2024/01/31 13:04:16;;;;;;;5.50;4.40;;;;;;;16.04;45.16;95722.06;4924038;29;20217;-83
2024/01/31 13:06:42;;;;;;;9.15;4.50;;;;;;;16.07;45.09;95712.06;4923918;29;20281;-84
2024/01/31 13:09:10;;;;;;;6.10;4.85;;;;;;;16.11;44.84;95708.06;4923489;29;20718;-83
2024/01/31 13:11:36;;;;;;;6.65;4.30;;;;;;;16.03;44.52;95703.09;4923109;29;20206;-85
2024/01/31 13:14:03;;;;;;;4.90;4.43;;;;;;;15.96;44.71;95689.38;4922017;29;20221;-84
2024/01/31 13:16:29;;;;;;;5.50;4.75;;;;;;;15.67;45.23;95695.84;4924177;29;20576;-84
2024/01/31 13:18:56;;;;;;;9.07;4.75;;;;;;;15.59;45.97;95734.22;4923324;29;20226;-84